Time;durP1;ratioP1;P1;durP2;ratioP2;P2;SDS_P1;SDS_P2;PMS_P1;PMS_P2;Temp;Humidity;BMP_temperature;BMP_pressure;BME280_temperature;BME280_humidity;BME280_pressure;Samples;Min_cycle;Max_cycle;Signal;HPM_P1;HPM_P2
2022/01/19 00:00:53;;;;;;;0.20;0.20;;;;;;;19.20;41.54;102797.94;5117150;28;20096;-33
2022/01/19 00:03:18;;;;;;;0.20;0.20;;;;;;;19.20;41.55;102792.44;5113965;27;20050;-33
2022/01/19 00:05:44;;;;;;;0.20;0.20;;;;;;;19.20;41.78;102789.66;5117792;28;20040;-37
2022/01/19 00:08:16;;;;;;;0.20;0.20;;;;;;;19.19;41.53;102793.50;5117645;27;20086;-35
2022/01/19 00:10:43;;;;;;;0.20;0.20;;;;;;;19.19;41.78;102785.22;5081322;28;20480;-31
2022/01/19 00:13:08;;;;;;;0.20;0.20;;;;;;;19.19;41.74;102788.00;5117237;28;20071;-35
2022/01/19 00:15:34;;;;;;;0.20;0.20;;;;;;;19.19;41.84;102782.47;5115953;28;20487;-32
2022/01/19 00:18:00;;;;;;;0.20;0.20;;;;;;;19.19;41.57;102771.41;5099680;28;20050;-35
2022/01/19 00:20:27;;;;;;;0.20;0.20;;;;;;;19.20;41.82;102768.41;5098466;28;20074;-33
2022/01/19 00:22:53;;;;;;;0.20;0.20;;;;;;;19.18;41.77;102758.69;5099321;28;20082;-32
2022/01/19 00:25:19;;;;;;;0.20;0.20;;;;;;;19.18;41.64;102736.59;5122649;28;20035;-35
2022/01/19 00:27:45;;;;;;;0.20;0.20;;;;;;;19.18;41.61;102715.34;5117292;28;20138;-35
2022/01/19 00:30:11;;;;;;;0.20;0.20;;;;;;;19.18;41.75;102706.22;5116272;28;20310;-33
2022/01/19 00:32:37;;;;;;;0.20;0.20;;;;;;;19.17;41.93;102691.56;5116745;28;20058;-34
2022/01/19 00:35:03;;;;;;;0.20;0.20;;;;;;;19.17;41.68;102683.28;5120574;28;20046;-32
2022/01/19 00:37:29;;;;;;;0.30;0.30;;;;;;;19.18;41.65;102682.19;5099848;28;20048;-33
2022/01/19 00:39:54;;;;;;;0.20;0.20;;;;;;;19.17;41.82;102672.25;5116912;28;20043;-34
2022/01/19 00:42:20;;;;;;;0.20;0.20;;;;;;;19.17;41.66;102672.25;5116399;28;20108;-35
2022/01/19 00:44:46;;;;;;;0.20;0.20;;;;;;;19.17;41.81;102688.81;5120080;28;20059;-37
2022/01/19 00:47:12;;;;;;;0.20;0.20;;;;;;;19.17;41.76;102688.81;5100699;28;20044;-36
2022/01/19 00:49:38;;;;;;;0.20;0.20;;;;;;;19.17;41.72;102699.84;5115663;27;20430;-32
2022/01/19 00:52:04;;;;;;;0.20;0.20;;;;;;;19.18;41.81;102708.97;5114285;28;20069;-38
2022/01/19 00:54:29;;;;;;;0.20;0.20;;;;;;;19.17;41.67;102721.94;5119246;28;20470;-35
2022/01/19 00:56:55;;;;;;;0.20;0.20;;;;;;;19.17;41.97;102734.88;5122485;28;20050;-35
2022/01/19 00:59:21;;;;;;;0.20;0.20;;;;;;;19.18;41.66;102739.38;5121552;28;20044;-32
2022/01/19 01:01:46;;;;;;;0.20;0.20;;;;;;;19.16;42.04;102735.97;5117569;28;20431;-32
2022/01/19 01:04:13;;;;;;;0.20;0.20;;;;;;;19.16;41.94;102728.53;5119024;28;20047;-34
2022/01/19 01:06:39;;;;;;;0.20;0.20;;;;;;;19.16;41.93;102725.78;5117602;28;20058;-32
2022/01/19 01:09:05;;;;;;;0.20;0.20;;;;;;;19.17;41.85;102721.94;5117462;28;20105;-33
2022/01/19 01:11:35;;;;;;;0.20;0.20;;;;;;;19.17;41.69;102718.31;5097973;28;20044;-32
2022/01/19 01:17:09;;;;;;;0.20;0.20;;;;;;;19.16;41.65;102708.34;5176859;27;20194;-32
2022/01/19 01:19:28;;;;;;;0.20;0.20;;;;;;;19.15;41.75;102703.91;5150281;27;20444;-32
2022/01/19 01:21:53;;;;;;;0.20;0.20;;;;;;;19.16;41.78;102711.13;5167371;27;20233;-33
2022/01/19 01:24:19;;;;;;;0.20;0.20;;;;;;;19.15;41.76;102709.44;5163420;27;20439;-33
2022/01/19 01:26:45;;;;;;;0.20;0.20;;;;;;;19.16;41.69;102700.91;5167357;27;20050;-34
2022/01/19 01:29:10;;;;;;;0.20;0.20;;;;;;;19.15;41.75;102701.16;5165205;27;20034;-30
2022/01/19 01:31:36;;;;;;;0.20;0.20;;;;;;;19.14;41.88;102689.28;5164931;27;20073;-31
2022/01/19 01:34:02;;;;;;;0.20;0.20;;;;;;;19.15;41.85;102693.72;5165372;27;20043;-32
2022/01/19 01:36:27;;;;;;;0.20;0.20;;;;;;;19.14;41.87;102678.22;5166063;27;20049;-33
2022/01/19 01:38:53;;;;;;;0.20;0.20;;;;;;;19.15;41.73;102665.25;5166416;27;20038;-32
2022/01/19 01:41:19;;;;;;;0.20;0.20;;;;;;;19.14;41.97;102672.72;5165847;27;20086;-31
2022/01/19 01:43:45;;;;;;;0.20;0.20;;;;;;;19.14;41.87;102667.19;5165530;27;20133;-34
2022/01/19 01:46:25;;;;;;;0.20;0.20;;;;;;;19.13;41.88;102671.03;5146637;27;20046;-35
2022/01/19 01:48:50;;;;;;;0.20;0.20;;;;;;;19.14;41.75;102672.72;5149464;27;20043;-31
2022/01/19 01:54:02;;;;;;;0.20;0.20;;;;;;;19.14;41.85;102681.00;5125399;27;20069;-32
2022/01/19 01:56:27;;;;;;;0.20;0.20;;;;;;;19.14;41.77;102675.47;5165981;27;20061;-35
2022/01/19 01:58:53;;;;;;;0.20;0.20;;;;;;;19.14;41.87;102682.91;5165107;27;20046;-31
2022/01/19 02:01:19;;;;;;;0.20;0.20;;;;;;;19.14;41.88;102682.91;5164911;27;20047;-33
2022/01/19 02:03:45;;;;;;;0.20;0.20;;;;;;;19.13;41.82;102673.78;5164411;27;20038;-33
2022/01/19 02:06:31;;;;;;;0.20;0.20;;;;;;;19.11;41.89;102661.28;5165338;27;20054;-36
2022/01/19 02:09:06;;;;;;;0.20;0.20;;;;;;;19.13;41.68;102650.84;5146892;27;20840;-35
2022/01/19 02:15:49;;;;;;;0.20;0.20;;;;;;;19.12;41.67;102644.47;5147430;27;20514;-31
2022/01/19 02:23:09;;;;;;;0.20;0.20;;;;;;;19.13;41.84;102598.34;5129529;27;20120;-35
2022/01/19 02:25:40;;;;;;;0.20;0.20;;;;;;;19.13;41.87;102602.00;5135557;27;20554;-31
2022/01/19 02:41:54;;;;;;;0.20;0.20;;;;;;;19.11;41.94;102562.72;5123527;27;20141;-32
2022/01/19 02:49:53;;;;;;;0.20;0.20;;;;;;;19.10;42.08;102557.44;5119425;27;20090;-32
2022/01/19 02:52:20;;;;;;;0.20;0.20;;;;;;;19.11;41.93;102556.34;5117459;27;20043;-32
2022/01/19 02:54:46;;;;;;;0.20;0.20;;;;;;;19.11;41.95;102537.03;5122353;27;20138;-33
2022/01/19 02:57:13;;;;;;;0.30;0.30;;;;;;;19.12;41.98;102519.38;5139520;27;20123;-32
2022/01/19 03:10:53;;;;;;;0.20;0.20;;;;;;;19.09;41.99;102512.41;5142369;27;20074;-27
2022/01/19 03:13:18;;;;;;;0.20;0.20;;;;;;;19.10;41.89;102503.03;5154325;27;20057;-27
2022/01/19 03:15:44;;;;;;;0.20;0.20;;;;;;;19.11;42.07;102501.13;5156491;27;20273;-27
2022/01/19 03:18:10;;;;;;;0.22;0.22;;;;;;;19.09;41.82;102501.38;5160019;27;20433;-27
2022/01/19 03:20:35;;;;;;;0.20;0.20;;;;;;;19.10;41.73;102502.22;5158173;27;20047;-27
2022/01/19 03:23:13;;;;;;;0.28;0.28;;;;;;;19.10;42.04;102502.22;5158151;27;20053;-27
2022/01/19 03:25:39;;;;;;;0.20;0.20;;;;;;;19.09;41.96;102495.00;5155273;27;20074;-27
2022/01/19 03:28:06;;;;;;;0.30;0.30;;;;;;;19.09;41.83;102495.00;5150551;27;20054;-27
2022/01/19 03:30:33;;;;;;;0.20;0.20;;;;;;;19.09;42.00;102489.50;5136839;27;20178;-27
2022/01/19 03:32:58;;;;;;;0.20;0.20;;;;;;;19.09;41.82;102497.78;5133809;27;20353;-27
2022/01/19 03:35:24;;;;;;;0.20;0.20;;;;;;;19.09;42.04;102487.56;5139046;27;20038;-27
2022/01/19 03:37:50;;;;;;;0.30;0.30;;;;;;;19.09;41.98;102489.50;5137190;27;20047;-28
2022/01/19 03:40:16;;;;;;;0.20;0.20;;;;;;;19.09;42.08;102492.25;5135995;27;20039;-27
2022/01/19 03:42:43;;;;;;;0.20;0.20;;;;;;;19.09;41.83;102483.97;5134694;27;20066;-27
2022/01/19 03:45:10;;;;;;;0.30;0.30;;;;;;;19.09;42.01;102476.53;5137073;27;20053;-27
2022/01/19 03:47:41;;;;;;;0.30;0.30;;;;;;;19.09;41.96;102473.75;5136302;27;20469;-27
2022/01/19 03:50:08;;;;;;;0.20;0.20;;;;;;;19.08;42.04;102474.81;5134315;27;20038;-27
2022/01/19 03:52:34;;;;;;;0.20;0.20;;;;;;;19.08;41.80;102463.78;5153626;27;20066;-27
2022/01/19 03:55:00;;;;;;;0.20;0.20;;;;;;;19.07;42.07;102475.91;5156661;27;20134;-28
2022/01/19 03:57:29;;;;;;;0.20;0.20;;;;;;;19.10;41.82;102474.59;5136032;27;20046;-27
2022/01/19 03:59:54;;;;;;;0.20;0.20;;;;;;;19.08;41.92;102465.69;5136152;27;20047;-27
2022/01/19 04:02:20;;;;;;;0.20;0.20;;;;;;;19.08;42.09;102473.97;5156501;27;20321;-27
2022/01/19 04:05:00;;;;;;;0.25;0.25;;;;;;;19.07;42.04;102467.63;5156331;27;20051;-27
2022/01/19 04:07:31;;;;;;;0.20;0.20;;;;;;;19.08;42.10;102471.22;5158776;27;20557;-27
2022/01/19 04:09:56;;;;;;;0.20;0.20;;;;;;;19.08;41.83;102469.28;5155026;27;20053;-27
2022/01/19 04:12:43;;;;;;;0.20;0.20;;;;;;;19.08;41.97;102462.94;5151466;27;20453;-28
2022/01/19 04:15:09;;;;;;;0.20;0.20;;;;;;;19.07;41.96;102458.50;5127112;27;20142;-27
2022/01/19 04:17:36;;;;;;;0.20;0.20;;;;;;;19.07;41.83;102467.63;5124659;27;20045;-27
2022/01/19 04:20:02;;;;;;;0.20;0.20;;;;;;;19.07;41.95;102473.16;5151205;27;20043;-27
2022/01/19 04:22:28;;;;;;;0.20;0.20;;;;;;;19.07;41.91;102464.88;5149834;27;20500;-27
2022/01/19 04:24:54;;;;;;;0.20;0.20;;;;;;;19.07;41.93;102466.78;5148603;27;20441;-27
2022/01/19 04:29:54;;;;;;;;;;;;;;;19.07;41.99;102461.25;5148658;27;20046;-27
2022/01/19 04:32:27;;;;;;;0.20;0.20;;;;;;;19.07;41.68;102459.34;5146610;27;19927;-27
2022/01/19 04:34:53;;;;;;;0.20;0.20;;;;;;;19.05;42.04;102451.31;5132909;27;20129;-30
2022/01/19 04:54:06;;;;;;;0.20;0.20;;;;;;;19.06;41.93;102457.66;5148968;27;20514;-27
2022/01/19 05:01:39;;;;;;;0.20;0.20;;;;;;;19.05;41.83;102437.50;5148335;27;20046;-27
2022/01/19 05:04:54;;;;;;;0.30;0.30;;;;;;;19.04;41.95;102430.31;5148445;27;20145;-27
2022/01/19 05:07:35;;;;;;;0.30;0.30;;;;;;;19.05;41.88;102420.09;5164277;27;20043;-27
2022/01/19 05:13:24;;;;;;;0.20;0.20;;;;;;;19.05;41.91;102409.06;5157909;27;20092;-28
2022/01/19 05:15:32;;;;;;;0.30;0.30;;;;;;;19.04;41.95;102413.75;5149810;27;20038;-27
2022/01/19 05:17:58;;;;;;;0.30;0.30;;;;;;;19.05;42.08;102403.53;5162273;27;20166;-27
2022/01/19 05:20:23;;;;;;;0.30;0.30;;;;;;;19.04;42.10;102386.13;5147106;27;20050;-27
2022/01/19 05:22:49;;;;;;;0.30;0.30;;;;;;;19.04;42.01;102388.91;5158177;27;20038;-27
2022/01/19 05:25:15;;;;;;;0.20;0.20;;;;;;;19.05;41.98;102392.50;5165291;27;20046;-27
2022/01/19 05:27:40;;;;;;;0.30;0.30;;;;;;;19.05;42.07;102398.84;5159153;27;20035;-27
2022/01/19 05:30:06;;;;;;;0.30;0.30;;;;;;;19.05;41.74;102395.25;5160079;27;20092;-27
2022/01/19 05:32:32;;;;;;;0.20;0.20;;;;;;;19.04;41.83;102394.41;5162129;27;20050;-29
2022/01/19 05:34:58;;;;;;;0.30;0.30;;;;;;;19.05;42.07;102392.50;5163728;27;20061;-27
2022/01/19 05:37:23;;;;;;;0.25;0.25;;;;;;;19.04;42.16;102383.38;5146150;27;20055;-27
2022/01/19 05:39:49;;;;;;;0.20;0.20;;;;;;;19.04;41.96;102380.63;5158658;27;20050;-27
2022/01/19 05:42:16;;;;;;;0.20;0.20;;;;;;;19.03;42.11;102373.38;5162362;27;20038;-28
2022/01/19 05:44:43;;;;;;;0.30;0.30;;;;;;;19.04;42.08;102365.94;5144966;27;20049;-27
2022/01/19 05:47:10;;;;;;;0.20;0.20;;;;;;;19.03;42.07;102365.09;5165001;27;20094;-27
2022/01/19 05:49:37;;;;;;;0.30;0.30;;;;;;;19.05;42.15;102362.13;5138120;27;20043;-27
2022/01/19 05:52:03;;;;;;;0.28;0.28;;;;;;;19.04;42.04;102357.66;5128468;27;20047;-27
2022/01/19 05:54:29;;;;;;;0.20;0.20;;;;;;;19.04;42.04;102354.91;5144242;27;20094;-28
2022/01/19 05:56:55;;;;;;;0.20;0.20;;;;;;;19.04;42.07;102346.63;5147251;27;20051;-27
2022/01/19 05:59:22;;;;;;;0.20;0.20;;;;;;;19.04;42.08;102346.63;5149356;27;20046;-27
2022/01/19 06:01:47;;;;;;;0.20;0.20;;;;;;;19.03;42.15;102351.31;5146424;27;20042;-27
2022/01/19 06:04:13;;;;;;;0.30;0.30;;;;;;;19.04;41.96;102336.44;5145372;27;20062;-27
2022/01/19 06:06:39;;;;;;;0.30;0.30;;;;;;;19.04;42.06;102336.44;5126229;27;20329;-27
2022/01/19 06:09:20;;;;;;;0.30;0.30;;;;;;;19.04;41.88;102333.69;5143671;27;20054;-28
2022/01/19 06:11:46;;;;;;;0.30;0.30;;;;;;;19.03;42.07;102326.44;5145224;27;20043;-27
2022/01/19 06:14:11;;;;;;;0.20;0.20;;;;;;;19.04;42.20;102330.91;5147115;27;20039;-27
2022/01/19 06:16:37;;;;;;;0.20;0.20;;;;;;;19.04;42.11;102330.03;5146380;27;20035;-27
2022/01/19 06:19:03;;;;;;;0.20;0.20;;;;;;;19.04;42.06;102324.53;5138661;27;20428;-27
2022/01/19 06:21:28;;;;;;;0.20;0.20;;;;;;;19.03;41.92;102312.66;5135029;27;20039;-27
2022/01/19 06:23:54;;;;;;;0.20;0.20;;;;;;;19.04;41.83;102313.47;5130704;27;20035;-27
2022/01/19 06:26:20;;;;;;;0.20;0.20;;;;;;;19.04;42.17;102310.72;5130649;27;20047;-28
2022/01/19 06:28:45;;;;;;;0.20;0.20;;;;;;;19.03;42.11;102311.81;5132957;27;20843;-27
2022/01/19 06:31:11;;;;;;;0.20;0.20;;;;;;;19.03;42.03;102315.41;5129418;27;20046;-28
2022/01/19 06:33:37;;;;;;;0.20;0.20;;;;;;;19.03;42.11;102314.56;5126387;27;20084;-27
2022/01/19 06:36:03;;;;;;;0.30;0.30;;;;;;;19.04;42.02;102317.09;5129387;27;20039;-26
2022/01/19 06:38:29;;;;;;;0.20;0.20;;;;;;;19.04;41.94;102316.25;5122639;27;20669;-27
2022/01/19 06:40:55;;;;;;;0.20;0.20;;;;;;;19.03;41.92;102320.94;5110546;27;20051;-26
2022/01/19 06:43:20;;;;;;;0.30;0.30;;;;;;;19.04;41.78;102333.69;5133391;27;20047;-27
2022/01/19 06:45:46;;;;;;;0.20;0.20;;;;;;;19.09;41.94;102324.66;5123541;27;20051;-27
2022/01/19 06:48:12;;;;;;;0.20;0.20;;;;;;;19.12;41.83;102323.31;5123772;27;20439;-30
2022/01/19 06:50:37;;;;;;;0.22;0.22;;;;;;;19.10;41.92;102309.75;5123617;27;20055;-27
2022/01/19 06:53:03;;;;;;;0.20;0.20;;;;;;;19.11;41.81;102321.63;5117849;27;20078;-28
2022/01/19 06:55:29;;;;;;;0.20;0.20;;;;;;;19.09;42.08;102315.53;5102009;27;20043;-27
2022/01/19 06:57:55;;;;;;;0.20;0.20;;;;;;;19.09;42.18;102310.84;5098552;27;20043;-28
2022/01/19 07:00:21;;;;;;;0.30;0.30;;;;;;;19.10;41.79;102304.22;5123956;27;20107;-27
2022/01/19 07:02:47;;;;;;;0.20;0.20;;;;;;;19.09;41.86;102315.53;5102528;27;20084;-27
2022/01/19 07:05:12;;;;;;;0.20;0.20;;;;;;;19.10;42.11;102323.56;5119629;27;20043;-27
2022/01/19 07:07:38;;;;;;;0.20;0.20;;;;;;;19.10;41.86;102320.78;5120423;27;20047;-29
2022/01/19 07:10:05;;;;;;;0.20;0.20;;;;;;;19.12;41.79;102320.53;5102869;27;20050;-30
2022/01/19 07:12:31;;;;;;;0.20;0.20;;;;;;;19.13;41.96;102316.69;5118570;27;20156;-32
2022/01/19 07:14:56;;;;;;;0.20;0.20;;;;;;;19.13;41.94;102323.06;5123316;27;20097;-30
2022/01/19 07:17:22;;;;;;;0.20;0.20;;;;;;;19.13;41.86;102317.56;5121737;27;20391;-30
2022/01/19 07:19:48;;;;;;;0.20;0.20;;;;;;;19.15;41.65;102309.00;5105555;27;20047;-30
2022/01/19 07:22:15;;;;;;;0.30;0.30;;;;;;;19.14;41.97;102308.16;5117603;27;20057;-30
2022/01/19 07:24:42;;;;;;;0.20;0.20;;;;;;;19.15;41.71;102307.06;5125631;27;20043;-30
2022/01/19 07:27:07;;;;;;;0.28;0.28;;;;;;;19.16;41.76;102299.63;5084282;28;20145;-31
2022/01/19 07:29:33;;;;;;;0.20;0.20;;;;;;;19.17;41.57;102298.53;5121893;27;20050;-31
2022/01/19 07:31:59;;;;;;;0.28;0.28;;;;;;;19.17;41.89;102288.34;5123036;27;20383;-30
2022/01/19 07:34:25;;;;;;;0.30;0.30;;;;;;;19.18;41.71;102273.47;5104322;27;20239;-30
2022/01/19 07:36:53;;;;;;;0.20;0.20;;;;;;;19.18;41.49;102273.47;5125184;27;20054;-29
2022/01/19 07:39:19;;;;;;;0.20;0.20;;;;;;;19.20;41.61;102270.44;5124713;27;20484;-29
2022/01/19 07:41:44;;;;;;;0.20;0.20;;;;;;;19.20;41.69;102274.03;5103058;27;20051;-32
2022/01/19 07:44:10;;;;;;;0.20;0.20;;;;;;;19.21;41.57;102266.56;5120210;27;20043;-29
2022/01/19 07:46:36;;;;;;;0.20;0.20;;;;;;;19.21;41.62;102272.09;5119900;27;20040;-28
2022/01/19 07:49:01;;;;;;;0.20;0.20;;;;;;;19.22;41.62;102254.47;5120339;27;20051;-27
2022/01/19 07:51:27;;;;;;;0.20;0.20;;;;;;;19.22;41.53;102254.47;5122459;27;20051;-28
2022/01/19 07:53:53;;;;;;;0.20;0.20;;;;;;;19.23;41.64;102248.69;5114210;27;20055;-31
2022/01/19 07:56:19;;;;;;;0.30;0.30;;;;;;;19.23;41.61;102251.44;5080363;27;20087;-28
2022/01/19 07:58:44;;;;;;;0.20;0.20;;;;;;;19.24;41.36;102247.59;5114268;27;20051;-29
2022/01/19 08:01:11;;;;;;;0.20;0.20;;;;;;;19.24;41.53;102247.59;5114255;27;20147;-28
2022/01/19 08:03:37;;;;;;;0.20;0.20;;;;;;;19.19;41.12;102246.66;5113373;27;20082;-29
2022/01/19 08:06:05;;;;;;;0.20;0.20;;;;;;;19.30;41.34;102243.00;5121890;27;20439;-27
2022/01/19 08:08:30;;;;;;;0.20;0.20;;;;;;;19.32;41.47;102243.59;5112010;27;20163;-28
2022/01/19 08:10:56;;;;;;;0.20;0.20;;;;;;;19.31;41.68;102244.69;5117015;27;20046;-29
2022/01/19 08:13:22;;;;;;;0.20;0.20;;;;;;;19.31;41.68;102241.91;5118685;27;20047;-28
2022/01/19 08:15:48;;;;;;;0.20;0.20;;;;;;;19.31;41.63;102236.41;5118236;27;20096;-28
2022/01/19 08:18:14;;;;;;;0.20;0.20;;;;;;;19.31;41.47;102233.63;5114604;27;20053;-27
2022/01/19 08:20:43;;;;;;;0.28;0.28;;;;;;;19.33;41.66;102231.44;5113165;27;20469;-27
2022/01/19 08:23:10;;;;;;;0.20;0.20;;;;;;;19.33;41.37;102234.22;5117482;27;20055;-28
2022/01/19 08:25:36;;;;;;;0.20;0.20;;;;;;;19.34;41.67;102235.88;5101610;27;20051;-28
2022/01/19 08:28:01;;;;;;;0.28;0.28;;;;;;;19.33;41.45;102236.13;5103712;27;20047;-28
2022/01/19 08:30:27;;;;;;;0.20;0.20;;;;;;;19.35;41.66;102245.84;5110548;27;20134;-28
2022/01/19 08:32:52;;;;;;;0.30;0.30;;;;;;;19.35;41.42;102225.69;5110158;27;20039;-28
2022/01/19 08:35:20;;;;;;;0.20;0.20;;;;;;;19.35;41.52;102231.22;5118638;27;20039;-27
2022/01/19 08:37:46;;;;;;;0.20;0.20;;;;;;;19.36;41.46;102243.94;5092954;27;20255;-28
2022/01/19 08:40:13;;;;;;;0.20;0.20;;;;;;;19.36;41.40;102244.75;5107330;27;20107;-29
2022/01/19 08:42:38;;;;;;;0.22;0.22;;;;;;;19.38;41.63;102244.50;5098621;28;20061;-29
2022/01/19 08:45:07;;;;;;;0.20;0.20;;;;;;;19.39;41.45;102248.97;5116582;27;20402;-28
2022/01/19 08:47:36;;;;;;;0.22;0.22;;;;;;;19.39;41.32;102246.19;5112478;27;20047;-28
2022/01/19 08:50:05;;;;;;;0.20;0.20;;;;;;;19.40;41.47;102251.47;5100926;27;20055;-28
2022/01/19 08:52:31;;;;;;;0.20;0.20;;;;;;;19.40;41.22;102247.88;5093068;28;20047;-28
2022/01/19 08:54:57;;;;;;;0.20;0.20;;;;;;;19.41;41.21;102244.84;5113466;27;20522;-28
2022/01/19 08:57:24;;;;;;;0.20;0.20;;;;;;;19.42;41.22;102242.91;5112643;27;20058;-27
2022/01/19 08:59:51;;;;;;;0.20;0.20;;;;;;;19.43;41.28;102245.44;5113758;27;20435;-28
2022/01/19 09:02:16;;;;;;;0.20;0.20;;;;;;;19.43;41.24;102236.28;5116214;27;20168;-29
2022/01/19 09:04:42;;;;;;;0.20;0.20;;;;;;;19.44;41.41;102233.31;5096571;27;20122;-27
2022/01/19 09:07:08;;;;;;;0.20;0.20;;;;;;;19.45;41.30;102221.16;5114213;27;20206;-32
2022/01/19 09:09:33;;;;;;;0.20;0.20;;;;;;;19.44;41.13;102216.72;5113334;27;20100;-28
2022/01/19 09:11:59;;;;;;;0.20;0.20;;;;;;;19.46;41.31;102208.19;5117932;27;20047;-28
2022/01/19 09:14:25;;;;;;;0.20;0.20;;;;;;;19.45;41.06;102203.75;5117151;27;20078;-28
2022/01/19 09:16:51;;;;;;;0.20;0.20;;;;;;;19.45;41.21;102200.97;5120719;27;20083;-28
2022/01/19 09:19:18;;;;;;;0.20;0.20;;;;;;;19.45;41.30;102190.75;5116703;27;20043;-29
2022/01/19 09:21:44;;;;;;;0.20;0.20;;;;;;;19.45;41.52;102198.22;5088196;27;20046;-27
2022/01/19 09:24:11;;;;;;;0.20;0.20;;;;;;;19.45;41.39;102192.69;5110834;27;20055;-28
2022/01/19 09:26:37;;;;;;;0.20;0.20;;;;;;;19.45;41.26;102187.16;5102733;27;20035;-31
2022/01/19 09:29:03;;;;;;;0.20;0.20;;;;;;;19.46;41.21;102186.06;5121922;27;20295;-30
2022/01/19 09:31:33;;;;;;;0.20;0.20;;;;;;;19.44;41.17;102186.34;5117810;27;20039;-28
2022/01/19 09:34:08;;;;;;;0.20;0.20;;;;;;;19.44;41.14;102180.81;5118809;27;21240;-27
2022/01/19 09:36:44;;;;;;;0.20;0.20;;;;;;;19.44;41.02;102183.56;5118658;27;20035;-28
2022/01/19 09:39:10;;;;;;;0.20;0.20;;;;;;;19.43;41.32;102178.28;5119139;27;20072;-31
2022/01/19 09:41:36;;;;;;;0.20;0.20;;;;;;;19.44;41.35;102178.03;5111214;27;20047;-28
2022/01/19 09:44:02;;;;;;;0.20;0.20;;;;;;;19.44;41.10;102177.22;5118015;27;20044;-33
2022/01/19 09:46:29;;;;;;;0.20;0.20;;;;;;;19.41;40.35;102180.47;5126910;27;20139;-30
2022/01/19 09:48:59;;;;;;;0.20;0.20;;;;;;;19.45;40.63;102171.41;5125057;27;20050;-28
2022/01/19 09:51:26;;;;;;;0.20;0.20;;;;;;;19.46;40.47;102161.22;5110907;27;20118;-27
2022/01/19 09:53:51;;;;;;;0.20;0.20;;;;;;;19.45;40.77;102157.63;5123282;27;20047;-29
2022/01/19 09:56:19;;;;;;;0.20;0.20;;;;;;;19.46;40.79;102152.91;5106015;27;20054;-28
2022/01/19 09:58:45;;;;;;;0.20;0.20;;;;;;;19.45;40.74;102141.03;5123301;27;20096;-27
2022/01/19 10:01:10;;;;;;;0.20;0.20;;;;;;;19.45;40.76;102146.56;5106744;27;20043;-28
2022/01/19 10:03:36;;;;;;;0.20;0.20;;;;;;;19.44;41.07;102142.13;5123116;27;20130;-27
2022/01/19 10:06:07;;;;;;;0.20;0.20;;;;;;;19.46;40.74;102147.38;5126542;27;20058;-29
2022/01/19 10:08:37;;;;;;;0.20;0.20;;;;;;;19.46;40.66;102148.22;5108239;27;20087;-28
2022/01/19 10:11:27;;;;;;;0.20;0.20;;;;;;;19.48;40.66;102142.47;5109509;27;20046;-28
2022/01/19 10:22:24;;;;;;;0.20;0.20;;;;;;;19.49;40.84;102113.75;5159464;27;20240;-29
2022/01/19 10:24:56;;;;;;;0.20;0.20;;;;;;;19.50;40.84;102107.94;5106528;27;20042;-27
2022/01/19 10:27:42;;;;;;;0.20;0.20;;;;;;;19.51;40.87;102098.56;5135878;27;20503;-28
2022/01/19 10:38:26;;;;;;;0.20;0.20;;;;;;;19.61;40.48;102086.03;5142604;27;20126;-31
2022/01/19 10:43:42;;;;;;;0.30;0.30;;;;;;;19.60;40.78;102079.63;5157261;27;20127;-32
2022/01/19 10:46:34;;;;;;;0.20;0.20;;;;;;;19.60;40.58;102073.25;5130375;27;20535;-31
2022/01/19 10:49:06;;;;;;;0.30;0.30;;;;;;;19.60;40.50;102073.25;5142508;27;20043;-34
2022/01/19 10:51:36;;;;;;;0.20;0.20;;;;;;;19.60;40.48;102073.25;5112801;27;20102;-33
2022/01/19 10:54:15;;;;;;;0.20;0.20;;;;;;;19.61;40.52;102072.22;5123300;27;20047;-31
2022/01/19 10:56:44;;;;;;;0.20;0.20;;;;;;;19.61;40.71;102072.22;5108023;27;20043;-31
2022/01/19 10:59:12;;;;;;;0.20;0.20;;;;;;;19.60;40.37;102065.78;5127026;27;20168;-37
2022/01/19 11:01:42;;;;;;;0.20;0.20;;;;;;;19.60;40.64;102059.44;5130378;27;20441;-31
2022/01/19 11:04:29;;;;;;;0.20;0.20;;;;;;;19.59;40.67;102061.38;5130018;27;20103;-32
2022/01/19 11:07:12;;;;;;;0.20;0.20;;;;;;;19.59;40.60;102057.78;5145921;27;20051;-32
2022/01/19 11:09:56;;;;;;;0.30;0.30;;;;;;;19.58;40.61;102048.66;5128018;27;20054;-31
2022/01/19 11:12:25;;;;;;;0.20;0.20;;;;;;;19.56;39.57;102048.09;5148349;27;20069;-40
2022/01/19 11:14:51;;;;;;;0.20;0.20;;;;;;;19.43;38.46;102043.78;5148205;27;20473;-30
2022/01/19 11:17:35;;;;;;;0.20;0.20;;;;;;;19.60;39.52;102046.47;5147720;27;20487;-32
2022/01/19 11:20:05;;;;;;;0.20;0.20;;;;;;;19.63;39.84;102042.38;5148033;27;20050;-31
2022/01/19 11:23:13;;;;;;;0.20;0.20;;;;;;;19.62;40.00;102030.50;5149665;27;20809;-29
2022/01/19 11:25:58;;;;;;;0.20;0.20;;;;;;;19.64;39.96;102021.94;5137544;27;20069;-29
2022/01/19 11:28:46;;;;;;;0.20;0.20;;;;;;;19.64;40.14;102021.94;5154845;27;21934;-30
2022/01/19 11:31:20;;;;;;;0.20;0.20;;;;;;;19.64;39.97;102020.00;5127544;27;20462;-29
2022/01/19 11:33:51;;;;;;;0.20;0.20;;;;;;;19.65;40.30;102016.19;5146871;27;20047;-31
2022/01/19 11:36:20;;;;;;;0.20;0.20;;;;;;;19.65;40.05;102010.66;5125448;27;20042;-31
2022/01/19 11:39:05;;;;;;;0.20;0.20;;;;;;;19.66;39.94;102006.78;5121914;27;20035;-31
2022/01/19 11:41:54;;;;;;;0.20;0.20;;;;;;;19.66;40.15;101995.72;5140817;27;20440;-30
2022/01/19 11:44:39;;;;;;;0.20;0.20;;;;;;;19.68;40.20;101988.00;5123788;27;20171;-32
2022/01/19 11:47:23;;;;;;;0.20;0.20;;;;;;;19.69;40.05;101977.78;5124759;27;20515;-31
2022/01/19 11:50:05;;;;;;;0.20;0.20;;;;;;;19.69;40.10;101973.13;5143772;27;20046;-30
2022/01/19 11:55:26;;;;;;;0.20;0.20;;;;;;;19.70;40.17;101972.03;5145567;27;20121;-32
2022/01/19 11:58:17;;;;;;;0.20;0.20;;;;;;;19.72;40.10;101958.75;5130504;27;20050;-31
2022/01/19 12:00:45;;;;;;;0.20;0.20;;;;;;;19.72;40.15;101961.53;5129433;27;20525;-29
2022/01/19 12:03:32;;;;;;;0.20;0.20;;;;;;;19.73;40.10;101956.81;5146144;27;20057;-35
2022/01/19 12:06:34;;;;;;;0.20;0.20;;;;;;;19.54;37.92;101950.78;5117162;27;20050;-32
2022/01/19 12:09:03;;;;;;;0.20;0.20;;;;;;;19.67;38.68;101953.19;5149245;27;20122;-32
2022/01/19 12:11:31;;;;;;;0.20;0.20;;;;;;;19.73;38.89;101943.00;5146871;27;20413;-32
2022/01/19 12:14:09;;;;;;;0.20;0.20;;;;;;;19.74;38.90;101937.25;5126692;27;20051;-31
2022/01/19 12:16:51;;;;;;;0.20;0.20;;;;;;;19.77;39.06;101931.19;5147189;27;20159;-34
2022/01/19 12:19:20;;;;;;;0.20;0.20;;;;;;;19.78;39.09;101926.50;5116338;27;21289;-31
2022/01/19 12:22:11;;;;;;;0.20;0.20;;;;;;;19.79;39.05;101914.34;5134432;27;20043;-30
2022/01/19 12:24:44;;;;;;;0.20;0.20;;;;;;;19.78;39.28;101910.75;5136814;27;20328;-30
2022/01/19 12:27:22;;;;;;;0.20;0.20;;;;;;;19.81;39.13;101920.44;5133520;27;20351;-33
2022/01/19 12:29:51;;;;;;;0.20;0.20;;;;;;;19.80;39.19;101924.28;5118771;27;20545;-30
2022/01/19 12:32:24;;;;;;;0.20;0.20;;;;;;;19.82;38.99;101915.72;5137408;27;20046;-30
2022/01/19 12:34:52;;;;;;;0.20;0.20;;;;;;;19.83;39.06;101898.06;5138660;27;21187;-30
2022/01/19 12:37:36;;;;;;;0.20;0.20;;;;;;;19.84;39.30;101908.03;5099656;27;20166;-30
2022/01/19 12:40:06;;;;;;;0.20;0.20;;;;;;;19.84;39.13;101899.75;5126063;27;20038;-30
2022/01/19 12:42:50;;;;;;;0.20;0.20;;;;;;;19.86;39.34;101903.91;5114585;27;20550;-30
2022/01/19 12:45:28;;;;;;;0.20;0.20;;;;;;;19.84;39.02;101895.03;5132703;27;20043;-32
2022/01/19 12:48:09;;;;;;;;;;;;;;;19.85;39.17;101893.94;5129992;27;20102;-32
2022/01/19 12:50:40;;;;;;;0.20;0.20;;;;;;;19.86;39.13;101886.47;5128419;27;19931;-31
2022/01/19 12:53:10;;;;;;;0.22;0.22;;;;;;;19.87;39.42;101883.47;5111184;27;20053;-31
2022/01/19 12:55:41;;;;;;;0.20;0.20;;;;;;;19.87;39.23;101885.41;5112156;27;20047;-30
2022/01/19 12:58:22;;;;;;;0.20;0.20;;;;;;;19.89;39.50;101874.91;5124561;27;20048;-31
2022/01/19 13:00:51;;;;;;;0.20;0.20;;;;;;;19.88;39.15;101874.06;5114593;27;20138;-31
2022/01/19 13:03:22;;;;;;;0.20;0.20;;;;;;;19.91;39.33;101869.97;5116240;27;20462;-30
2022/01/19 13:05:50;;;;;;;0.20;0.20;;;;;;;19.91;39.01;101856.97;5109977;27;20043;-32
2022/01/19 13:08:34;;;;;;;0.20;0.20;;;;;;;19.92;39.34;101863.31;5119684;27;20092;-32
2022/01/19 13:11:06;;;;;;;0.20;0.20;;;;;;;19.92;39.13;101852.25;5084414;27;20039;-30